Time,TemperatureF,DewpointF,PressureIn,WindDirection,WindDirectionDegrees,WindSpeedMPH,WindSpeedGustMPH,Humidity,HourlyPrecipIn,Conditions,Clouds,dailyrainin,SoftwareType,DateUTC
2013-01-07 00:02:00,30.0,25.0,30.03,SSW,203,2.0,6.0,82,0.00,,,0.00,,2013-01-07 06:02:00,
2013-01-07 00:12:00,30.0,25.0,30.03,SSW,203,2.0,6.0,82,0.00,,,0.00,,2013-01-07 06:12:00,
2013-01-07 00:22:00,30.0,25.0,30.03,SSW,195,3.0,6.0,82,0.00,,,0.00,,2013-01-07 06:22:00,
2013-01-07 00:32:00,29.0,25.0,30.02,SSW,212,6.0,12.0,83,0.00,,,0.00,,2013-01-07 06:32:00,
2013-01-07 00:42:00,29.0,25.0,30.02,SSW,212,6.0,12.0,83,0.00,,,0.00,,2013-01-07 06:42:00,
2013-01-07 00:52:00,29.0,25.0,30.01,South,181,5.0,11.0,83,0.00,,,0.00,,2013-01-07 06:52:00,
2013-01-07 01:02:00,30.0,25.0,30.00,South,182,7.0,11.0,82,0.00,,,0.00,,2013-01-07 07:02:00,
2013-01-07 01:12:00,30.0,25.0,30.00,South,182,7.0,11.0,82,0.00,,,0.00,,2013-01-07 07:12:00,
2013-01-07 01:22:00,30.0,25.0,29.99,SSW,206,6.0,12.0,82,0.00,,,0.00,,2013-01-07 07:22:00,
2013-01-07 01:33:00,30.0,25.0,29.98,South,191,2.0,10.0,82,0.00,,,0.00,,2013-01-07 07:33:00,
2013-01-07 01:42:00,30.0,25.0,29.98,South,191,2.0,10.0,82,0.00,,,0.00,,2013-01-07 07:42:00,
2013-01-07 01:52:00,29.0,25.0,29.97,West,268,2.0,10.0,83,0.00,,,0.00,,2013-01-07 07:52:00,
2013-01-07 02:03:00,30.0,25.0,29.99,NNE,12,4.0,7.0,82,0.00,,,0.00,,2013-01-07 08:03:00,
2013-01-07 02:12:00,30.0,25.0,29.99,NNE,12,4.0,7.0,82,0.00,,,0.00,,2013-01-07 08:12:00,
2013-01-07 02:22:00,30.0,25.0,30.00,WNW,296,3.0,7.0,82,0.00,,,0.00,,2013-01-07 08:22:00,
2013-01-07 02:32:00,30.0,25.0,30.00,WNW,296,3.0,7.0,82,0.00,,,0.00,,2013-01-07 08:32:00,
2013-01-07 02:42:00,30.0,25.0,30.00,WNW,296,3.0,7.0,82,0.00,,,0.00,,2013-01-07 08:42:00,
2013-01-07 02:52:00,28.0,24.0,29.99,NNW,348,0.0,3.0,83,0.00,,,0.00,,2013-01-07 08:52:00,
2013-01-07 03:02:00,27.0,23.0,29.99,NNW,347,0.0,2.0,85,0.00,,,0.00,,2013-01-07 09:02:00,
2013-01-07 03:12:00,27.0,23.0,29.99,NNW,347,0.0,2.0,85,0.00,,,0.00,,2013-01-07 09:12:00,
2013-01-07 03:22:00,28.0,24.0,29.99,ESE,121,1.0,8.0,85,0.00,,,0.00,,2013-01-07 09:22:00,
2013-01-07 03:32:00,28.0,24.0,30.00,SSW,208,0.0,2.0,83,0.00,,,0.00,,2013-01-07 09:32:00,
2013-01-07 03:42:00,28.0,24.0,30.00,SSW,208,0.0,2.0,83,0.00,,,0.00,,2013-01-07 09:42:00,
2013-01-07 03:52:00,27.0,23.0,30.01,SSW,208,0.0,1.0,84,0.00,,,0.00,,2013-01-07 09:52:00,
2013-01-07 04:02:00,26.0,22.0,29.98,SSW,207,0.0,3.0,85,0.00,,,0.00,,2013-01-07 10:02:00,
2013-01-07 04:12:00,26.0,22.0,29.98,SSW,207,0.0,3.0,85,0.00,,,0.00,,2013-01-07 10:12:00,
2013-01-07 04:22:00,26.0,22.0,30.00,SE,132,0.0,2.0,86,0.00,,,0.00,,2013-01-07 10:22:00,
2013-01-07 04:32:00,25.0,21.0,30.00,SE,132,1.0,3.0,86,0.00,,,0.00,,2013-01-07 10:32:00,
2013-01-07 04:42:00,25.0,21.0,30.00,SE,132,1.0,3.0,86,0.00,,,0.00,,2013-01-07 10:42:00,
2013-01-07 04:52:00,24.0,21.0,29.98,SE,132,0.0,2.0,87,0.00,,,0.00,,2013-01-07 10:52:00,
2013-01-07 05:02:00,24.0,21.0,29.98,SE,132,0.0,0.0,88,0.00,,,0.00,,2013-01-07 11:02:00,
2013-01-07 05:12:00,24.0,21.0,29.98,SE,132,0.0,0.0,88,0.00,,,0.00,,2013-01-07 11:12:00,
2013-01-07 05:22:00,24.0,21.0,29.97,SE,132,0.0,0.0,89,0.00,,,0.00,,2013-01-07 11:22:00,
2013-01-07 05:33:00,23.0,20.0,29.97,SE,132,1.0,3.0,89,0.00,,,0.00,,2013-01-07 11:33:00,
2013-01-07 05:43:00,23.0,20.0,29.97,SE,132,1.0,3.0,89,0.00,,,0.00,,2013-01-07 11:43:00,
2013-01-07 05:53:00,23.0,20.0,29.97,SE,132,0.0,2.0,89,0.00,,,0.00,,2013-01-07 11:53:00,
2013-01-07 06:03:00,23.0,21.0,29.97,SE,132,1.0,3.0,90,0.00,,,0.00,,2013-01-07 12:03:00,
2013-01-07 06:12:00,23.0,21.0,29.97,SE,132,1.0,3.0,90,0.00,,,0.00,,2013-01-07 12:12:00,
2013-01-07 06:22:00,23.0,21.0,29.98,WNW,287,2.0,6.0,90,0.00,,,0.00,,2013-01-07 12:22:00,
2013-01-07 06:33:00,21.0,18.0,29.98,WNW,287,2.0,4.0,88,0.00,,,0.00,,2013-01-07 12:33:00,
2013-01-07 06:43:00,21.0,18.0,29.98,WNW,287,2.0,4.0,88,0.00,,,0.00,,2013-01-07 12:43:00,
2013-01-07 06:52:00,21.0,18.0,29.98,WNW,287,0.0,4.0,89,0.00,,,0.00,,2013-01-07 12:52:00,
2013-01-07 07:02:00,20.0,18.0,29.98,WNW,287,1.0,4.0,90,0.00,,,0.00,,2013-01-07 13:02:00,
2013-01-07 07:12:00,20.0,18.0,29.98,WNW,287,1.0,4.0,90,0.00,,,0.00,,2013-01-07 13:12:00,
2013-01-07 07:23:00,20.0,18.0,30.00,WNW,298,2.0,4.0,90,0.00,,,0.00,,2013-01-07 13:23:00,
2013-01-07 07:33:00,20.0,18.0,30.00,NNW,344,1.0,6.0,91,0.00,,,0.00,,2013-01-07 13:33:00,
2013-01-07 07:42:00,20.0,18.0,30.00,NNW,344,1.0,6.0,91,0.00,,,0.00,,2013-01-07 13:42:00,
2013-01-07 07:52:00,20.0,18.0,29.99,West,279,1.0,5.0,90,0.00,,,0.00,,2013-01-07 13:52:00,
2013-01-07 08:03:00,19.0,16.0,30.00,WNW,284,5.0,8.0,89,0.00,,,0.00,,2013-01-07 14:03:00,
2013-01-07 08:12:00,19.0,16.0,30.00,WNW,284,5.0,8.0,89,0.00,,,0.00,,2013-01-07 14:12:00,
2013-01-07 08:22:00,19.0,16.0,30.02,WNW,283,4.0,10.0,89,0.00,,,0.00,,2013-01-07 14:22:00,
2013-01-07 08:33:00,19.0,16.0,30.02,WNW,292,3.0,7.0,89,0.00,,,0.00,,2013-01-07 14:33:00,
2013-01-07 08:42:00,19.0,16.0,30.02,WNW,292,3.0,7.0,89,0.00,,,0.00,,2013-01-07 14:42:00,
2013-01-07 08:53:00,20.0,17.0,30.02,NNW,338,4.0,8.0,89,0.00,,,0.00,,2013-01-07 14:53:00,
2013-01-07 09:03:00,21.0,18.0,30.02,NNE,28,1.0,6.0,88,0.00,,,0.00,,2013-01-07 15:03:00,
2013-01-07 09:12:00,21.0,18.0,30.02,NNE,28,1.0,6.0,88,0.00,,,0.00,,2013-01-07 15:12:00,
2013-01-07 09:22:00,22.0,19.0,30.02,NW,304,4.0,8.0,87,0.00,,,0.00,,2013-01-07 15:22:00,
2013-01-07 09:33:00,23.0,20.0,30.03,NW,319,2.0,7.0,87,0.00,,,0.00,,2013-01-07 15:33:00,
2013-01-07 09:43:00,23.0,20.0,30.03,NW,319,2.0,7.0,87,0.00,,,0.00,,2013-01-07 15:43:00,
2013-01-07 09:53:00,25.0,21.0,30.03,WNW,296,6.0,9.0,84,0.00,,,0.00,,2013-01-07 15:53:00,
2013-01-07 10:02:00,25.0,21.0,30.03,WNW,292,3.0,11.0,84,0.00,,,0.00,,2013-01-07 16:02:00,
2013-01-07 10:12:00,25.0,21.0,30.03,WNW,292,3.0,11.0,84,0.00,,,0.00,,2013-01-07 16:12:00,
2013-01-07 10:22:00,26.0,21.0,30.04,WNW,296,4.0,8.0,82,0.00,,,0.00,,2013-01-07 16:22:00,
2013-01-07 10:33:00,26.0,21.0,30.04,WNW,297,4.0,8.0,80,0.00,,,0.00,,2013-01-07 16:33:00,
2013-01-07 10:43:00,26.0,21.0,30.04,WNW,297,4.0,8.0,80,0.00,,,0.00,,2013-01-07 16:43:00,
2013-01-07 10:53:00,27.0,22.0,30.05,WNW,292,4.0,7.0,80,0.00,,,0.00,,2013-01-07 16:53:00,
2013-01-07 11:02:00,29.0,23.0,30.05,WSW,256,3.0,6.0,79,0.00,,,0.00,,2013-01-07 17:02:00,
2013-01-07 11:12:00,29.0,23.0,30.05,WSW,256,3.0,6.0,79,0.00,,,0.00,,2013-01-07 17:12:00,
2013-01-07 11:23:00,30.0,23.0,30.05,West,279,2.0,6.0,76,0.00,,,0.00,,2013-01-07 17:23:00,
2013-01-07 11:33:00,33.0,25.0,30.06,WNW,292,2.0,6.0,73,0.00,,,0.00,,2013-01-07 17:33:00,
2013-01-07 11:42:00,33.0,25.0,30.06,WNW,292,2.0,6.0,73,0.00,,,0.00,,2013-01-07 17:42:00,
2013-01-07 11:53:00,33.0,25.0,30.06,WNW,292,2.0,6.0,73,0.00,,,0.00,,2013-01-07 17:53:00,
2013-01-07 12:03:00,35.0,27.0,30.06,WNW,298,3.0,9.0,71,0.00,,,0.00,,2013-01-07 18:03:00,
2013-01-07 12:12:00,35.0,27.0,30.06,WNW,298,3.0,9.0,71,0.00,,,0.00,,2013-01-07 18:12:00,
2013-01-07 12:23:00,37.0,27.0,30.05,NW,306,4.0,9.0,68,0.00,,,0.00,,2013-01-07 18:23:00,
2013-01-07 12:33:00,40.0,26.0,30.03,North,360,4.0,9.0,58,0.00,,,0.00,,2013-01-07 18:33:00,
2013-01-07 12:42:00,40.0,26.0,30.03,North,360,4.0,9.0,58,0.00,,,0.00,,2013-01-07 18:42:00,
2013-01-07 12:52:00,41.0,26.0,30.03,NE,34,4.0,8.0,55,0.00,,,0.00,,2013-01-07 18:52:00,
2013-01-07 13:03:00,42.0,27.0,30.02,NNE,12,4.0,6.0,54,0.00,,,0.00,,2013-01-07 19:03:00,
2013-01-07 13:12:00,42.0,27.0,30.02,NNE,12,4.0,6.0,54,0.00,,,0.00,,2013-01-07 19:12:00,
2013-01-07 13:22:00,42.0,26.0,30.01,NNE,17,4.0,8.0,53,0.00,,,0.00,,2013-01-07 19:22:00,
2013-01-07 13:33:00,43.0,26.0,30.01,NNE,12,3.0,9.0,50,0.00,,,0.00,,2013-01-07 19:33:00,
2013-01-07 13:43:00,43.0,26.0,30.01,NNE,12,3.0,9.0,50,0.00,,,0.00,,2013-01-07 19:43:00,
2013-01-07 13:52:00,44.0,25.0,30.00,NNE,12,4.0,9.0,47,0.00,,,0.00,,2013-01-07 19:52:00,
2013-01-07 14:03:00,46.0,24.0,29.99,NNE,33,3.0,7.0,42,0.00,,,0.00,,2013-01-07 20:03:00,
2013-01-07 14:12:00,46.0,24.0,29.99,NNE,33,3.0,7.0,42,0.00,,,0.00,,2013-01-07 20:12:00,
2013-01-07 14:23:00,46.0,26.0,29.99,North,11,3.0,8.0,45,0.00,,,0.00,,2013-01-07 20:23:00,
2013-01-07 14:33:00,46.0,24.0,29.98,NNE,20,3.0,7.0,42,0.00,,,0.00,,2013-01-07 20:33:00,
2013-01-07 14:42:00,46.0,24.0,29.98,NNE,20,3.0,7.0,42,0.00,,,0.00,,2013-01-07 20:42:00,
2013-01-07 14:52:00,46.0,25.0,29.98,NE,40,1.0,8.0,43,0.00,,,0.00,,2013-01-07 20:52:00,
2013-01-07 15:03:00,46.0,25.0,29.98,NE,51,1.0,5.0,43,0.00,,,0.00,,2013-01-07 21:03:00,
2013-01-07 15:12:00,46.0,25.0,29.98,NE,51,1.0,5.0,43,0.00,,,0.00,,2013-01-07 21:12:00,
2013-01-07 15:23:00,47.0,25.0,29.98,SSE,156,0.0,5.0,41,0.00,,,0.00,,2013-01-07 21:23:00,
2013-01-07 15:33:00,47.0,24.0,29.98,SE,130,1.0,7.0,40,0.00,,,0.00,,2013-01-07 21:33:00,
2013-01-07 15:43:00,47.0,24.0,29.98,SE,130,1.0,7.0,40,0.00,,,0.00,,2013-01-07 21:43:00,
2013-01-07 15:52:00,47.0,24.0,29.98,SE,130,1.0,7.0,40,0.00,,,0.00,,2013-01-07 21:52:00,
2013-01-07 16:02:00,47.0,25.0,29.98,ESE,119,0.0,3.0,41,0.00,,,0.00,,2013-01-07 22:02:00,
2013-01-07 16:12:00,47.0,25.0,29.98,ESE,119,0.0,3.0,41,0.00,,,0.00,,2013-01-07 22:12:00,
2013-01-07 16:22:00,47.0,24.0,29.97,SE,137,1.0,5.0,40,0.00,,,0.00,,2013-01-07 22:22:00,
2013-01-07 16:33:00,47.0,25.0,29.98,SE,137,2.0,4.0,41,0.00,,,0.00,,2013-01-07 22:33:00,
2013-01-07 16:42:00,47.0,25.0,29.98,SE,137,2.0,4.0,41,0.00,,,0.00,,2013-01-07 22:42:00,
2013-01-07 16:52:00,47.0,25.0,29.98,SE,130,1.0,4.0,41,0.00,,,0.00,,2013-01-07 22:52:00,
2013-01-07 17:02:00,46.0,24.0,29.98,SE,138,2.0,5.0,42,0.00,,,0.00,,2013-01-07 23:02:00,
2013-01-07 17:12:00,46.0,24.0,29.98,SE,138,2.0,5.0,42,0.00,,,0.00,,2013-01-07 23:12:00,
2013-01-07 17:22:00,46.0,25.0,29.98,SE,138,0.0,2.0,43,0.00,,,0.00,,2013-01-07 23:22:00,
2013-01-07 17:33:00,46.0,25.0,29.98,SE,138,0.0,2.0,43,0.00,,,0.00,,2013-01-07 23:33:00,
2013-01-07 17:43:00,46.0,25.0,29.98,SE,138,0.0,2.0,43,0.00,,,0.00,,2013-01-07 23:43:00,
2013-01-07 17:53:00,43.0,24.0,29.96,SE,138,2.0,4.0,47,0.00,,,0.00,,2013-01-07 23:53:00,
2013-01-07 18:02:00,42.0,24.0,29.96,SE,138,0.0,3.0,48,0.00,,,0.00,,2013-01-08 00:02:00,
2013-01-07 18:12:00,42.0,24.0,29.96,SE,138,0.0,3.0,48,0.00,,,0.00,,2013-01-08 00:12:00,
2013-01-07 18:22:00,41.0,24.0,29.97,SE,138,0.0,0.0,51,0.00,,,0.00,,2013-01-08 00:22:00,
2013-01-07 18:33:00,39.0,24.0,29.97,SE,138,0.0,0.0,54,0.00,,,0.00,,2013-01-08 00:33:00,
2013-01-07 18:42:00,39.0,24.0,29.97,SE,138,0.0,0.0,54,0.00,,,0.00,,2013-01-08 00:42:00,
2013-01-07 18:52:00,37.0,24.0,29.98,SE,138,0.0,0.0,59,0.00,,,0.00,,2013-01-08 00:52:00,
2013-01-07 19:03:00,36.0,25.0,29.97,SE,138,0.0,0.0,63,0.00,,,0.00,,2013-01-08 01:03:00,
2013-01-07 19:12:00,36.0,25.0,29.97,SE,138,0.0,0.0,63,0.00,,,0.00,,2013-01-08 01:12:00,
2013-01-07 19:22:00,34.0,25.0,29.97,SE,138,0.0,0.0,68,0.00,,,0.00,,2013-01-08 01:22:00,
2013-01-07 19:33:00,32.0,24.0,29.98,SE,138,0.0,0.0,71,0.00,,,0.00,,2013-01-08 01:33:00,
2013-01-07 19:42:00,32.0,24.0,29.98,SE,138,0.0,0.0,71,0.00,,,0.00,,2013-01-08 01:42:00,
2013-01-07 19:52:00,31.0,24.0,29.97,SE,138,0.0,0.0,75,0.00,,,0.00,,2013-01-08 01:52:00,
2013-01-07 20:02:00,30.0,23.0,29.98,SE,138,0.0,0.0,76,0.00,,,0.00,,2013-01-08 02:02:00,
2013-01-07 20:12:00,30.0,23.0,29.98,SE,138,0.0,0.0,76,0.00,,,0.00,,2013-01-08 02:12:00,
2013-01-07 20:22:00,29.0,23.0,29.97,SE,138,0.0,0.0,79,0.00,,,0.00,,2013-01-08 02:22:00,
2013-01-07 20:33:00,29.0,24.0,29.97,SE,138,0.0,0.0,81,0.00,,,0.00,,2013-01-08 02:33:00,
2013-01-07 20:42:00,29.0,24.0,29.97,SE,138,0.0,0.0,81,0.00,,,0.00,,2013-01-08 02:42:00,
2013-01-07 20:53:00,28.0,23.0,29.97,SE,138,0.0,0.0,81,0.00,,,0.00,,2013-01-08 02:53:00,
2013-01-07 21:03:00,28.0,23.0,29.96,SE,138,0.0,0.0,82,0.00,,,0.00,,2013-01-08 03:03:00,
2013-01-07 21:12:00,28.0,23.0,29.96,SE,138,0.0,0.0,82,0.00,,,0.00,,2013-01-08 03:12:00,
2013-01-07 21:22:00,27.0,23.0,29.96,SE,138,0.0,0.0,83,0.00,,,0.00,,2013-01-08 03:22:00,
2013-01-07 21:32:00,26.0,21.0,29.96,SE,138,0.0,0.0,81,0.00,,,0.00,,2013-01-08 03:32:00,
2013-01-07 21:43:00,26.0,21.0,29.96,SE,138,0.0,0.0,81,0.00,,,0.00,,2013-01-08 03:43:00,
2013-01-07 21:52:00,26.0,21.0,29.96,SE,138,0.0,0.0,81,0.00,,,0.00,,2013-01-08 03:52:00,
2013-01-07 22:02:00,25.0,21.0,29.96,SE,138,0.0,1.0,83,0.00,,,0.00,,2013-01-08 04:02:00,
2013-01-07 22:12:00,25.0,21.0,29.96,SE,138,0.0,1.0,83,0.00,,,0.00,,2013-01-08 04:12:00,
2013-01-07 22:22:00,24.0,20.0,29.95,SE,138,0.0,0.0,83,0.00,,,0.00,,2013-01-08 04:22:00,
2013-01-07 22:32:00,24.0,20.0,29.94,SE,138,0.0,2.0,84,0.00,,,0.00,,2013-01-08 04:32:00,
2013-01-07 22:42:00,24.0,20.0,29.94,SE,138,0.0,2.0,84,0.00,,,0.00,,2013-01-08 04:42:00,
2013-01-07 22:52:00,24.0,20.0,29.94,SE,138,0.0,2.0,84,0.00,,,0.00,,2013-01-08 04:52:00,
2013-01-07 23:03:00,24.0,20.0,29.94,SE,138,0.0,1.0,85,0.00,,,0.00,,2013-01-08 05:03:00,
2013-01-07 23:12:00,24.0,20.0,29.94,SE,138,0.0,1.0,85,0.00,,,0.00,,2013-01-08 05:12:00,
2013-01-07 23:22:00,24.0,20.0,29.94,SE,138,0.0,1.0,85,0.00,,,0.00,,2013-01-08 05:22:00,
2013-01-07 23:33:00,23.0,20.0,29.93,SE,138,0.0,1.0,88,0.00,,,0.00,,2013-01-08 05:33:00,
2013-01-07 23:43:00,23.0,20.0,29.93,SE,138,0.0,1.0,88,0.00,,,0.00,,2013-01-08 05:43:00,
2013-01-07 23:53:00,23.0,20.0,29.93,SE,138,0.0,0.0,87,0.00,,,0.00,,2013-01-08 05:53:00,